sensor_id;sensor_type;location;lat;lon;timestamp;temperature;humidity
21508;DHT22;10915;54.352;9.074;2023-05-27T00:02:25;8.30;99.90
21508;DHT22;10915;54.352;9.074;2023-05-27T00:04:51;8.40;99.90
21508;DHT22;10915;54.352;9.074;2023-05-27T00:07:16;8.50;99.90
21508;DHT22;10915;54.352;9.074;2023-05-27T00:09:42;8.30;99.90
21508;DHT22;10915;54.352;9.074;2023-05-27T00:12:08;8.10;99.90
21508;DHT22;10915;54.352;9.074;2023-05-27T00:14:33;8.20;99.90
21508;DHT22;10915;54.352;9.074;2023-05-27T00:16:59;8.30;99.90
21508;DHT22;10915;54.352;9.074;2023-05-27T00:19:27;8.50;99.90
21508;DHT22;10915;54.352;9.074;2023-05-27T00:21:54;8.50;99.90
21508;DHT22;10915;54.352;9.074;2023-05-27T00:24:20;8.50;99.90
21508;DHT22;10915;54.352;9.074;2023-05-27T00:26:46;8.30;99.90
21508;DHT22;10915;54.352;9.074;2023-05-27T00:29:12;8.40;99.90
21508;DHT22;10915;54.352;9.074;2023-05-27T00:31:37;8.50;99.90
21508;DHT22;10915;54.352;9.074;2023-05-27T00:34:03;8.30;99.90
21508;DHT22;10915;54.352;9.074;2023-05-27T00:36:29;8.30;99.90
21508;DHT22;10915;54.352;9.074;2023-05-27T00:38:57;8.30;99.90
21508;DHT22;10915;54.352;9.074;2023-05-27T00:41:23;8.20;99.90
21508;DHT22;10915;54.352;9.074;2023-05-27T00:43:48;8.20;99.90
21508;DHT22;10915;54.352;9.074;2023-05-27T00:46:14;8.30;99.90
21508;DHT22;10915;54.352;9.074;2023-05-27T00:48:40;8.30;99.90
21508;DHT22;10915;54.352;9.074;2023-05-27T00:51:06;8.30;99.90
21508;DHT22;10915;54.352;9.074;2023-05-27T00:53:42;8.30;99.90
21508;DHT22;10915;54.352;9.074;2023-05-27T00:56:09;8.40;99.90
21508;DHT22;10915;54.352;9.074;2023-05-27T00:58:36;8.30;99.90
21508;DHT22;10915;54.352;9.074;2023-05-27T01:01:02;8.40;99.90
21508;DHT22;10915;54.352;9.074;2023-05-27T01:03:29;8.50;99.90
21508;DHT22;10915;54.352;9.074;2023-05-27T01:08:49;8.60;99.90
21508;DHT22;10915;54.352;9.074;2023-05-27T01:11:22;8.60;99.90
21508;DHT22;10915;54.352;9.074;2023-05-27T01:13:55;8.60;99.90
21508;DHT22;10915;54.352;9.074;2023-05-27T01:16:23;8.50;99.90
21508;DHT22;10915;54.352;9.074;2023-05-27T01:18:51;8.50;99.90
21508;DHT22;10915;54.352;9.074;2023-05-27T01:21:20;8.50;99.90
21508;DHT22;10915;54.352;9.074;2023-05-27T01:23:47;8.50;99.90
21508;DHT22;10915;54.352;9.074;2023-05-27T01:26:13;8.50;99.90
21508;DHT22;10915;54.352;9.074;2023-05-27T01:28:40;8.50;99.90
21508;DHT22;10915;54.352;9.074;2023-05-27T01:31:35;8.50;99.90
21508;DHT22;10915;54.352;9.074;2023-05-27T01:34:08;8.50;99.90
21508;DHT22;10915;54.352;9.074;2023-05-27T01:36:39;8.50;99.90
21508;DHT22;10915;54.352;9.074;2023-05-27T01:39:09;8.50;99.90
21508;DHT22;10915;54.352;9.074;2023-05-27T01:41:37;8.40;99.90
21508;DHT22;10915;54.352;9.074;2023-05-27T01:44:04;8.40;99.90
21508;DHT22;10915;54.352;9.074;2023-05-27T01:46:31;8.40;99.90
21508;DHT22;10915;54.352;9.074;2023-05-27T01:48:56;8.30;99.90
21508;DHT22;10915;54.352;9.074;2023-05-27T01:51:22;8.30;99.90
21508;DHT22;10915;54.352;9.074;2023-05-27T01:53:47;8.20;99.90
21508;DHT22;10915;54.352;9.074;2023-05-27T01:56:13;8.20;99.90
21508;DHT22;10915;54.352;9.074;2023-05-27T01:58:39;8.20;99.90
21508;DHT22;10915;54.352;9.074;2023-05-27T02:01:04;8.20;99.90
21508;DHT22;10915;54.352;9.074;2023-05-27T02:03:30;8.10;99.90
21508;DHT22;10915;54.352;9.074;2023-05-27T02:05:56;8.10;99.90
21508;DHT22;10915;54.352;9.074;2023-05-27T02:08:21;8.10;99.90
21508;DHT22;10915;54.352;9.074;2023-05-27T02:10:48;8.10;99.90
21508;DHT22;10915;54.352;9.074;2023-05-27T02:13:13;8.10;99.90
21508;DHT22;10915;54.352;9.074;2023-05-27T02:15:39;8.10;99.90
21508;DHT22;10915;54.352;9.074;2023-05-27T02:18:05;8.00;99.90
21508;DHT22;10915;54.352;9.074;2023-05-27T02:20:31;8.10;99.90
21508;DHT22;10915;54.352;9.074;2023-05-27T02:22:57;8.00;99.90
21508;DHT22;10915;54.352;9.074;2023-05-27T02:25:22;8.00;99.90
21508;DHT22;10915;54.352;9.074;2023-05-27T02:27:48;8.00;99.90
21508;DHT22;10915;54.352;9.074;2023-05-27T02:30:15;8.00;99.90
21508;DHT22;10915;54.352;9.074;2023-05-27T02:32:41;8.00;99.90
21508;DHT22;10915;54.352;9.074;2023-05-27T02:35:07;8.00;99.90
21508;DHT22;10915;54.352;9.074;2023-05-27T02:37:34;7.90;99.90
21508;DHT22;10915;54.352;9.074;2023-05-27T02:39:59;7.80;99.90
21508;DHT22;10915;54.352;9.074;2023-05-27T02:42:25;7.80;99.90
21508;DHT22;10915;54.352;9.074;2023-05-27T02:44:51;7.90;99.90
21508;DHT22;10915;54.352;9.074;2023-05-27T02:47:16;8.00;99.90
21508;DHT22;10915;54.352;9.074;2023-05-27T02:49:42;8.00;99.90
21508;DHT22;10915;54.352;9.074;2023-05-27T02:52:07;8.00;99.90
21508;DHT22;10915;54.352;9.074;2023-05-27T02:54:33;7.90;99.90
21508;DHT22;10915;54.352;9.074;2023-05-27T02:56:58;7.90;99.90
21508;DHT22;10915;54.352;9.074;2023-05-27T02:59:25;7.90;99.90
21508;DHT22;10915;54.352;9.074;2023-05-27T03:01:50;7.90;99.90
21508;DHT22;10915;54.352;9.074;2023-05-27T03:04:16;7.90;99.90
21508;DHT22;10915;54.352;9.074;2023-05-27T03:06:46;7.90;99.90
21508;DHT22;10915;54.352;9.074;2023-05-27T03:09:12;7.90;99.90
21508;DHT22;10915;54.352;9.074;2023-05-27T03:11:39;7.90;99.90
21508;DHT22;10915;54.352;9.074;2023-05-27T03:14:05;7.90;99.90
21508;DHT22;10915;54.352;9.074;2023-05-27T03:16:31;7.90;99.90
21508;DHT22;10915;54.352;9.074;2023-05-27T03:18:57;7.90;99.90
21508;DHT22;10915;54.352;9.074;2023-05-27T03:21:22;7.90;99.90
21508;DHT22;10915;54.352;9.074;2023-05-27T03:23:48;7.90;99.90
21508;DHT22;10915;54.352;9.074;2023-05-27T03:26:13;7.80;99.90
21508;DHT22;10915;54.352;9.074;2023-05-27T03:28:39;7.80;99.90
21508;DHT22;10915;54.352;9.074;2023-05-27T03:31:05;7.80;99.90
21508;DHT22;10915;54.352;9.074;2023-05-27T03:33:31;7.80;99.90
21508;DHT22;10915;54.352;9.074;2023-05-27T03:35:56;7.80;99.90
21508;DHT22;10915;54.352;9.074;2023-05-27T03:38:22;7.80;99.90
21508;DHT22;10915;54.352;9.074;2023-05-27T03:40:48;7.80;99.90
21508;DHT22;10915;54.352;9.074;2023-05-27T03:43:13;7.80;99.90
21508;DHT22;10915;54.352;9.074;2023-05-27T03:45:39;7.90;99.90
21508;DHT22;10915;54.352;9.074;2023-05-27T03:48:05;7.90;99.90
21508;DHT22;10915;54.352;9.074;2023-05-27T03:50:32;7.90;99.90
21508;DHT22;10915;54.352;9.074;2023-05-27T03:52:58;7.90;99.90
21508;DHT22;10915;54.352;9.074;2023-05-27T03:55:24;7.90;99.90
21508;DHT22;10915;54.352;9.074;2023-05-27T03:57:50;7.90;99.90
21508;DHT22;10915;54.352;9.074;2023-05-27T04:00:16;7.90;99.90
21508;DHT22;10915;54.352;9.074;2023-05-27T04:02:42;8.00;99.90
21508;DHT22;10915;54.352;9.074;2023-05-27T04:05:08;8.00;99.90
21508;DHT22;10915;54.352;9.074;2023-05-27T04:07:34;8.00;99.90
21508;DHT22;10915;54.352;9.074;2023-05-27T04:09:59;8.10;99.90
21508;DHT22;10915;54.352;9.074;2023-05-27T04:12:25;8.10;99.90
21508;DHT22;10915;54.352;9.074;2023-05-27T04:14:51;8.20;99.90
21508;DHT22;10915;54.352;9.074;2023-05-27T04:17:16;8.30;99.90
21508;DHT22;10915;54.352;9.074;2023-05-27T04:19:43;8.30;99.90
21508;DHT22;10915;54.352;9.074;2023-05-27T04:22:08;8.40;99.90
21508;DHT22;10915;54.352;9.074;2023-05-27T04:24:34;8.50;99.90
21508;DHT22;10915;54.352;9.074;2023-05-27T04:27:00;8.50;99.90
21508;DHT22;10915;54.352;9.074;2023-05-27T04:29:26;8.60;99.90
21508;DHT22;10915;54.352;9.074;2023-05-27T04:31:53;8.60;99.90
21508;DHT22;10915;54.352;9.074;2023-05-27T04:34:18;8.70;99.90
21508;DHT22;10915;54.352;9.074;2023-05-27T04:36:44;8.70;99.90
21508;DHT22;10915;54.352;9.074;2023-05-27T04:39:17;8.70;99.90
21508;DHT22;10915;54.352;9.074;2023-05-27T04:41:43;8.70;99.90
21508;DHT22;10915;54.352;9.074;2023-05-27T04:44:10;8.80;99.90
21508;DHT22;10915;54.352;9.074;2023-05-27T04:46:37;8.80;99.90
21508;DHT22;10915;54.352;9.074;2023-05-27T04:49:04;8.80;99.90
21508;DHT22;10915;54.352;9.074;2023-05-27T04:51:30;8.90;99.90
21508;DHT22;10915;54.352;9.074;2023-05-27T04:53:55;9.00;99.90
21508;DHT22;10915;54.352;9.074;2023-05-27T04:56:21;9.00;99.90
21508;DHT22;10915;54.352;9.074;2023-05-27T04:58:47;9.10;99.90
21508;DHT22;10915;54.352;9.074;2023-05-27T05:01:14;9.10;99.90
21508;DHT22;10915;54.352;9.074;2023-05-27T05:03:46;9.20;99.90
21508;DHT22;10915;54.352;9.074;2023-05-27T05:06:27;9.30;99.90
21508;DHT22;10915;54.352;9.074;2023-05-27T05:08:53;9.30;99.90
21508;DHT22;10915;54.352;9.074;2023-05-27T05:11:19;9.40;99.90
21508;DHT22;10915;54.352;9.074;2023-05-27T05:13:44;9.50;99.90
21508;DHT22;10915;54.352;9.074;2023-05-27T05:16:10;9.60;99.90
21508;DHT22;10915;54.352;9.074;2023-05-27T05:18:36;9.80;99.90
21508;DHT22;10915;54.352;9.074;2023-05-27T05:21:01;10.00;99.90
21508;DHT22;10915;54.352;9.074;2023-05-27T05:23:27;10.30;99.90
21508;DHT22;10915;54.352;9.074;2023-05-27T05:25:52;10.70;99.90
21508;DHT22;10915;54.352;9.074;2023-05-27T05:28:23;11.10;99.90
21508;DHT22;10915;54.352;9.074;2023-05-27T05:30:49;11.10;99.90
21508;DHT22;10915;54.352;9.074;2023-05-27T05:33:14;11.10;99.90
21508;DHT22;10915;54.352;9.074;2023-05-27T05:35:40;10.70;99.90
21508;DHT22;10915;54.352;9.074;2023-05-27T05:38:05;10.40;99.90
21508;DHT22;10915;54.352;9.074;2023-05-27T05:40:31;10.40;99.90
21508;DHT22;10915;54.352;9.074;2023-05-27T05:42:57;10.10;99.90
21508;DHT22;10915;54.352;9.074;2023-05-27T05:45:26;10.00;99.90
21508;DHT22;10915;54.352;9.074;2023-05-27T05:47:52;10.10;99.90
21508;DHT22;10915;54.352;9.074;2023-05-27T05:50:17;10.10;99.90
21508;DHT22;10915;54.352;9.074;2023-05-27T05:52:43;10.00;99.90
21508;DHT22;10915;54.352;9.074;2023-05-27T05:55:09;10.00;99.90
21508;DHT22;10915;54.352;9.074;2023-05-27T05:57:34;10.10;99.90
21508;DHT22;10915;54.352;9.074;2023-05-27T06:00:00;10.20;99.90
21508;DHT22;10915;54.352;9.074;2023-05-27T06:02:25;10.10;99.90
21508;DHT22;10915;54.352;9.074;2023-05-27T06:04:51;10.20;99.90
21508;DHT22;10915;54.352;9.074;2023-05-27T06:07:17;10.30;99.90
21508;DHT22;10915;54.352;9.074;2023-05-27T06:09:42;10.50;99.90
21508;DHT22;10915;54.352;9.074;2023-05-27T06:12:08;10.50;99.90
21508;DHT22;10915;54.352;9.074;2023-05-27T06:14:34;10.60;99.90
21508;DHT22;10915;54.352;9.074;2023-05-27T06:17:00;10.70;99.90
21508;DHT22;10915;54.352;9.074;2023-05-27T06:19:25;10.80;99.90
21508;DHT22;10915;54.352;9.074;2023-05-27T06:21:51;10.60;99.90
21508;DHT22;10915;54.352;9.074;2023-05-27T06:24:17;10.60;99.90
21508;DHT22;10915;54.352;9.074;2023-05-27T06:26:44;10.60;99.90
21508;DHT22;10915;54.352;9.074;2023-05-27T06:29:10;10.60;99.90
21508;DHT22;10915;54.352;9.074;2023-05-27T06:31:35;10.60;99.90
21508;DHT22;10915;54.352;9.074;2023-05-27T06:34:07;10.70;99.90
21508;DHT22;10915;54.352;9.074;2023-05-27T06:36:32;10.70;99.90
21508;DHT22;10915;54.352;9.074;2023-05-27T06:38:59;10.90;99.90
21508;DHT22;10915;54.352;9.074;2023-05-27T06:41:25;10.90;99.90
21508;DHT22;10915;54.352;9.074;2023-05-27T06:43:51;10.90;99.90
21508;DHT22;10915;54.352;9.074;2023-05-27T06:46:16;10.80;99.90
21508;DHT22;10915;54.352;9.074;2023-05-27T06:48:42;10.90;99.90
21508;DHT22;10915;54.352;9.074;2023-05-27T06:51:08;11.00;99.90
21508;DHT22;10915;54.352;9.074;2023-05-27T06:53:34;11.20;99.90
21508;DHT22;10915;54.352;9.074;2023-05-27T06:56:00;11.30;99.90
21508;DHT22;10915;54.352;9.074;2023-05-27T06:58:25;11.30;99.90
21508;DHT22;10915;54.352;9.074;2023-05-27T07:00:51;11.30;99.90
21508;DHT22;10915;54.352;9.074;2023-05-27T07:03:17;11.30;99.90
21508;DHT22;10915;54.352;9.074;2023-05-27T07:05:42;11.40;99.90
21508;DHT22;10915;54.352;9.074;2023-05-27T07:08:08;11.40;99.90
21508;DHT22;10915;54.352;9.074;2023-05-27T07:10:34;11.50;99.90
21508;DHT22;10915;54.352;9.074;2023-05-27T07:12:59;11.50;99.90
21508;DHT22;10915;54.352;9.074;2023-05-27T07:15:25;11.40;99.90
21508;DHT22;10915;54.352;9.074;2023-05-27T07:17:52;11.50;99.90
21508;DHT22;10915;54.352;9.074;2023-05-27T07:20:18;11.70;99.90
21508;DHT22;10915;54.352;9.074;2023-05-27T07:22:44;11.90;99.90
21508;DHT22;10915;54.352;9.074;2023-05-27T07:25:10;12.00;99.90
21508;DHT22;10915;54.352;9.074;2023-05-27T07:27:36;12.10;99.90
21508;DHT22;10915;54.352;9.074;2023-05-27T07:30:02;12.10;99.90
21508;DHT22;10915;54.352;9.074;2023-05-27T07:32:27;12.00;99.90
21508;DHT22;10915;54.352;9.074;2023-05-27T07:34:53;12.00;99.90
21508;DHT22;10915;54.352;9.074;2023-05-27T07:37:19;12.40;99.90
21508;DHT22;10915;54.352;9.074;2023-05-27T07:39:45;12.40;99.90
21508;DHT22;10915;54.352;9.074;2023-05-27T07:42:10;12.50;99.90
21508;DHT22;10915;54.352;9.074;2023-05-27T07:44:36;12.90;99.90
21508;DHT22;10915;54.352;9.074;2023-05-27T07:47:02;13.30;99.90
21508;DHT22;10915;54.352;9.074;2023-05-27T07:49:27;13.60;99.90
21508;DHT22;10915;54.352;9.074;2023-05-27T07:51:53;13.80;99.90
21508;DHT22;10915;54.352;9.074;2023-05-27T07:54:20;13.90;99.90
21508;DHT22;10915;54.352;9.074;2023-05-27T07:56:45;13.90;99.90
21508;DHT22;10915;54.352;9.074;2023-05-27T07:59:11;13.80;99.90
21508;DHT22;10915;54.352;9.074;2023-05-27T08:01:37;14.10;99.90
21508;DHT22;10915;54.352;9.074;2023-05-27T08:04:02;14.50;99.90
21508;DHT22;10915;54.352;9.074;2023-05-27T08:06:28;14.60;99.90
21508;DHT22;10915;54.352;9.074;2023-05-27T08:08:53;14.60;99.90
21508;DHT22;10915;54.352;9.074;2023-05-27T08:11:19;14.80;99.90
21508;DHT22;10915;54.352;9.074;2023-05-27T08:13:45;14.80;99.90
21508;DHT22;10915;54.352;9.074;2023-05-27T08:16:11;14.80;99.90
21508;DHT22;10915;54.352;9.074;2023-05-27T08:18:37;15.30;99.90
21508;DHT22;10915;54.352;9.074;2023-05-27T08:21:03;15.30;99.90
21508;DHT22;10915;54.352;9.074;2023-05-27T08:23:28;15.70;99.90
21508;DHT22;10915;54.352;9.074;2023-05-27T08:25:54;16.00;99.90
21508;DHT22;10915;54.352;9.074;2023-05-27T08:28:20;16.30;99.90
21508;DHT22;10915;54.352;9.074;2023-05-27T08:30:46;16.50;99.90
21508;DHT22;10915;54.352;9.074;2023-05-27T08:33:12;16.30;99.90
21508;DHT22;10915;54.352;9.074;2023-05-27T08:35:37;16.40;99.90
21508;DHT22;10915;54.352;9.074;2023-05-27T08:38:03;15.90;99.90
21508;DHT22;10915;54.352;9.074;2023-05-27T08:40:29;16.00;99.90
21508;DHT22;10915;54.352;9.074;2023-05-27T08:42:55;16.30;99.90
21508;DHT22;10915;54.352;9.074;2023-05-27T08:45:21;16.60;99.90
21508;DHT22;10915;54.352;9.074;2023-05-27T08:47:47;16.70;99.90
21508;DHT22;10915;54.352;9.074;2023-05-27T08:50:14;16.90;99.90
21508;DHT22;10915;54.352;9.074;2023-05-27T08:52:46;16.90;99.90
21508;DHT22;10915;54.352;9.074;2023-05-27T08:55:15;16.80;99.90
21508;DHT22;10915;54.352;9.074;2023-05-27T08:57:45;16.50;99.90
21508;DHT22;10915;54.352;9.074;2023-05-27T09:00:12;16.80;99.90
21508;DHT22;10915;54.352;9.074;2023-05-27T09:02:40;17.00;99.90
21508;DHT22;10915;54.352;9.074;2023-05-27T09:05:07;17.40;99.90
21508;DHT22;10915;54.352;9.074;2023-05-27T09:07:33;17.70;99.90
21508;DHT22;10915;54.352;9.074;2023-05-27T09:09:59;17.90;99.90
21508;DHT22;10915;54.352;9.074;2023-05-27T09:12:25;17.40;99.90
21508;DHT22;10915;54.352;9.074;2023-05-27T09:14:52;17.00;99.90
21508;DHT22;10915;54.352;9.074;2023-05-27T09:17:17;16.90;99.90
21508;DHT22;10915;54.352;9.074;2023-05-27T09:19:44;17.20;99.90
21508;DHT22;10915;54.352;9.074;2023-05-27T09:22:20;17.10;99.90
21508;DHT22;10915;54.352;9.074;2023-05-27T09:24:46;17.10;99.90
21508;DHT22;10915;54.352;9.074;2023-05-27T09:27:12;16.70;99.90
21508;DHT22;10915;54.352;9.074;2023-05-27T09:29:38;16.40;99.90
21508;DHT22;10915;54.352;9.074;2023-05-27T09:32:06;16.80;99.90
21508;DHT22;10915;54.352;9.074;2023-05-27T09:34:38;16.90;99.90
21508;DHT22;10915;54.352;9.074;2023-05-27T09:37:04;16.80;99.90
21508;DHT22;10915;54.352;9.074;2023-05-27T09:39:30;16.70;99.90
21508;DHT22;10915;54.352;9.074;2023-05-27T09:42:00;16.50;99.90
21508;DHT22;10915;54.352;9.074;2023-05-27T09:44:31;16.70;99.90
21508;DHT22;10915;54.352;9.074;2023-05-27T09:47:04;16.50;99.90
21508;DHT22;10915;54.352;9.074;2023-05-27T09:49:32;16.70;99.90
21508;DHT22;10915;54.352;9.074;2023-05-27T09:52:01;17.20;99.90
21508;DHT22;10915;54.352;9.074;2023-05-27T09:54:27;17.60;99.90
21508;DHT22;10915;54.352;9.074;2023-05-27T09:56:54;18.10;99.90
21508;DHT22;10915;54.352;9.074;2023-05-27T09:59:20;18.70;99.90
21508;DHT22;10915;54.352;9.074;2023-05-27T10:01:45;18.70;99.90
21508;DHT22;10915;54.352;9.074;2023-05-27T10:04:14;19.00;99.90
21508;DHT22;10915;54.352;9.074;2023-05-27T10:06:41;19.30;99.90
21508;DHT22;10915;54.352;9.074;2023-05-27T10:09:08;19.60;99.90
21508;DHT22;10915;54.352;9.074;2023-05-27T10:11:34;19.90;99.90
21508;DHT22;10915;54.352;9.074;2023-05-27T10:14:03;20.10;99.90
21508;DHT22;10915;54.352;9.074;2023-05-27T10:16:28;20.30;99.90
21508;DHT22;10915;54.352;9.074;2023-05-27T10:18:56;20.40;99.90
21508;DHT22;10915;54.352;9.074;2023-05-27T10:21:25;20.50;99.90
21508;DHT22;10915;54.352;9.074;2023-05-27T10:26:42;20.80;99.90
21508;DHT22;10915;54.352;9.074;2023-05-27T10:29:15;21.00;99.90
21508;DHT22;10915;54.352;9.074;2023-05-27T10:31:52;21.10;99.90
21508;DHT22;10915;54.352;9.074;2023-05-27T10:34:18;21.30;99.90
21508;DHT22;10915;54.352;9.074;2023-05-27T10:36:45;21.40;99.90
21508;DHT22;10915;54.352;9.074;2023-05-27T10:39:15;21.10;99.90
21508;DHT22;10915;54.352;9.074;2023-05-27T10:41:49;21.10;99.90
21508;DHT22;10915;54.352;9.074;2023-05-27T10:49:27;19.80;99.90
21508;DHT22;10915;54.352;9.074;2023-05-27T10:52:10;20.10;99.90
21508;DHT22;10915;54.352;9.074;2023-05-27T10:54:43;20.00;99.90
21508;DHT22;10915;54.352;9.074;2023-05-27T10:57:11;19.70;99.90
21508;DHT22;10915;54.352;9.074;2023-05-27T11:02:14;20.20;99.90
21508;DHT22;10915;54.352;9.074;2023-05-27T11:04:40;19.60;99.90
21508;DHT22;10915;54.352;9.074;2023-05-27T11:07:06;19.00;99.90
21508;DHT22;10915;54.352;9.074;2023-05-27T11:12:22;19.90;99.90
21508;DHT22;10915;54.352;9.074;2023-05-27T11:14:53;20.40;99.90
21508;DHT22;10915;54.352;9.074;2023-05-27T11:17:20;20.60;99.90
21508;DHT22;10915;54.352;9.074;2023-05-27T11:19:46;20.40;99.90
21508;DHT22;10915;54.352;9.074;2023-05-27T11:22:13;19.70;99.90
21508;DHT22;10915;54.352;9.074;2023-05-27T11:24:39;19.90;99.90
21508;DHT22;10915;54.352;9.074;2023-05-27T11:27:14;20.30;99.90
21508;DHT22;10915;54.352;9.074;2023-05-27T11:29:49;20.60;99.90
21508;DHT22;10915;54.352;9.074;2023-05-27T11:32:16;20.70;99.90
21508;DHT22;10915;54.352;9.074;2023-05-27T11:34:43;20.70;99.90
21508;DHT22;10915;54.352;9.074;2023-05-27T11:37:10;20.90;99.90
21508;DHT22;10915;54.352;9.074;2023-05-27T11:39:36;21.10;99.90
21508;DHT22;10915;54.352;9.074;2023-05-27T11:42:05;21.40;99.90
21508;DHT22;10915;54.352;9.074;2023-05-27T11:44:32;21.70;99.90
21508;DHT22;10915;54.352;9.074;2023-05-27T11:46:59;22.00;99.90
21508;DHT22;10915;54.352;9.074;2023-05-27T11:49:27;22.20;99.90
21508;DHT22;10915;54.352;9.074;2023-05-27T11:51:55;22.20;99.90
21508;DHT22;10915;54.352;9.074;2023-05-27T11:54:28;22.00;99.90
21508;DHT22;10915;54.352;9.074;2023-05-27T11:56:56;21.60;99.90
21508;DHT22;10915;54.352;9.074;2023-05-27T11:59:23;20.80;99.90
21508;DHT22;10915;54.352;9.074;2023-05-27T12:01:49;20.40;99.90
21508;DHT22;10915;54.352;9.074;2023-05-27T12:04:16;19.80;99.90
21508;DHT22;10915;54.352;9.074;2023-05-27T12:06:44;19.90;99.90
21508;DHT22;10915;54.352;9.074;2023-05-27T12:09:11;20.10;99.90
21508;DHT22;10915;54.352;9.074;2023-05-27T12:11:37;20.10;99.90
21508;DHT22;10915;54.352;9.074;2023-05-27T12:14:04;19.60;99.90
21508;DHT22;10915;54.352;9.074;2023-05-27T12:16:34;19.30;99.90
21508;DHT22;10915;54.352;9.074;2023-05-27T12:19:00;19.00;99.90
21508;DHT22;10915;54.352;9.074;2023-05-27T12:21:25;19.10;99.90
21508;DHT22;10915;54.352;9.074;2023-05-27T12:23:51;18.80;99.90
21508;DHT22;10915;54.352;9.074;2023-05-27T12:26:18;18.60;99.90
21508;DHT22;10915;54.352;9.074;2023-05-27T12:28:44;18.80;99.90
21508;DHT22;10915;54.352;9.074;2023-05-27T12:31:11;19.10;99.90
21508;DHT22;10915;54.352;9.074;2023-05-27T12:33:36;19.30;99.90
21508;DHT22;10915;54.352;9.074;2023-05-27T12:36:03;19.40;99.90
21508;DHT22;10915;54.352;9.074;2023-05-27T12:38:31;19.70;99.90
21508;DHT22;10915;54.352;9.074;2023-05-27T12:45:52;20.00;99.90
21508;DHT22;10915;54.352;9.074;2023-05-27T12:48:18;19.80;99.90
21508;DHT22;10915;54.352;9.074;2023-05-27T12:50:44;19.80;99.90
21508;DHT22;10915;54.352;9.074;2023-05-27T12:53:10;19.90;99.90
21508;DHT22;10915;54.352;9.074;2023-05-27T12:55:36;20.40;99.90
21508;DHT22;10915;54.352;9.074;2023-05-27T12:58:02;20.40;99.90
21508;DHT22;10915;54.352;9.074;2023-05-27T13:00:28;20.40;99.90
21508;DHT22;10915;54.352;9.074;2023-05-27T13:02:54;20.30;99.90
21508;DHT22;10915;54.352;9.074;2023-05-27T13:05:20;20.00;99.90
21508;DHT22;10915;54.352;9.074;2023-05-27T13:07:59;20.40;99.90
21508;DHT22;10915;54.352;9.074;2023-05-27T13:10:25;20.60;99.90
21508;DHT22;10915;54.352;9.074;2023-05-27T13:12:52;20.50;99.90
21508;DHT22;10915;54.352;9.074;2023-05-27T13:15:17;20.30;99.90
21508;DHT22;10915;54.352;9.074;2023-05-27T13:17:50;20.20;99.90
21508;DHT22;10915;54.352;9.074;2023-05-27T13:20:17;20.10;99.90
21508;DHT22;10915;54.352;9.074;2023-05-27T13:22:44;20.10;99.90
21508;DHT22;10915;54.352;9.074;2023-05-27T13:25:10;20.40;99.90
21508;DHT22;10915;54.352;9.074;2023-05-27T13:27:39;20.60;99.90
21508;DHT22;10915;54.352;9.074;2023-05-27T13:30:11;21.00;99.90
21508;DHT22;10915;54.352;9.074;2023-05-27T13:32:37;21.40;99.90
21508;DHT22;10915;54.352;9.074;2023-05-27T13:35:04;21.40;99.90
21508;DHT22;10915;54.352;9.074;2023-05-27T13:37:29;21.50;99.90
21508;DHT22;10915;54.352;9.074;2023-05-27T13:39:55;21.70;99.90
21508;DHT22;10915;54.352;9.074;2023-05-27T13:42:22;21.80;99.90
21508;DHT22;10915;54.352;9.074;2023-05-27T13:44:48;22.10;99.90
21508;DHT22;10915;54.352;9.074;2023-05-27T13:47:14;22.10;99.90
21508;DHT22;10915;54.352;9.074;2023-05-27T13:49:39;21.70;99.90
21508;DHT22;10915;54.352;9.074;2023-05-27T13:52:05;21.50;99.90
21508;DHT22;10915;54.352;9.074;2023-05-27T13:54:30;21.50;99.90
21508;DHT22;10915;54.352;9.074;2023-05-27T13:56:56;21.70;99.90
21508;DHT22;10915;54.352;9.074;2023-05-27T13:59:22;21.90;99.90
21508;DHT22;10915;54.352;9.074;2023-05-27T14:01:47;22.00;99.90
21508;DHT22;10915;54.352;9.074;2023-05-27T14:04:15;22.10;99.90
21508;DHT22;10915;54.352;9.074;2023-05-27T14:06:41;22.10;99.90
21508;DHT22;10915;54.352;9.074;2023-05-27T14:09:06;21.90;99.90
21508;DHT22;10915;54.352;9.074;2023-05-27T14:11:32;21.80;99.90
21508;DHT22;10915;54.352;9.074;2023-05-27T14:13:57;21.80;99.90
21508;DHT22;10915;54.352;9.074;2023-05-27T14:16:24;21.90;99.90
21508;DHT22;10915;54.352;9.074;2023-05-27T14:18:50;22.00;99.90
21508;DHT22;10915;54.352;9.074;2023-05-27T14:21:16;21.90;99.90
21508;DHT22;10915;54.352;9.074;2023-05-27T14:23:42;21.70;99.90
21508;DHT22;10915;54.352;9.074;2023-05-27T14:26:07;21.60;99.90
21508;DHT22;10915;54.352;9.074;2023-05-27T14:28:33;21.70;99.90
21508;DHT22;10915;54.352;9.074;2023-05-27T14:30:59;21.80;99.90
21508;DHT22;10915;54.352;9.074;2023-05-27T14:33:25;21.90;99.90
21508;DHT22;10915;54.352;9.074;2023-05-27T14:35:50;21.60;99.90
21508;DHT22;10915;54.352;9.074;2023-05-27T14:38:17;21.80;99.90
21508;DHT22;10915;54.352;9.074;2023-05-27T14:40:42;21.90;99.90
21508;DHT22;10915;54.352;9.074;2023-05-27T14:43:09;22.00;99.90
21508;DHT22;10915;54.352;9.074;2023-05-27T14:45:35;22.10;99.90
21508;DHT22;10915;54.352;9.074;2023-05-27T14:48:01;21.80;99.90
21508;DHT22;10915;54.352;9.074;2023-05-27T14:50:26;21.20;99.90
21508;DHT22;10915;54.352;9.074;2023-05-27T14:52:53;20.80;99.90
21508;DHT22;10915;54.352;9.074;2023-05-27T14:55:19;20.40;99.90
21508;DHT22;10915;54.352;9.074;2023-05-27T14:57:45;20.20;99.90
21508;DHT22;10915;54.352;9.074;2023-05-27T15:00:11;20.50;99.90
21508;DHT22;10915;54.352;9.074;2023-05-27T15:02:37;20.70;99.90
21508;DHT22;10915;54.352;9.074;2023-05-27T15:05:04;21.00;99.90
21508;DHT22;10915;54.352;9.074;2023-05-27T15:07:33;21.10;99.90
21508;DHT22;10915;54.352;9.074;2023-05-27T15:10:00;21.30;99.90
21508;DHT22;10915;54.352;9.074;2023-05-27T15:12:37;21.40;99.90
21508;DHT22;10915;54.352;9.074;2023-05-27T15:15:05;21.50;99.90
21508;DHT22;10915;54.352;9.074;2023-05-27T15:17:31;21.60;99.90
21508;DHT22;10915;54.352;9.074;2023-05-27T15:19:58;21.70;99.90
21508;DHT22;10915;54.352;9.074;2023-05-27T15:22:23;21.70;99.90
21508;DHT22;10915;54.352;9.074;2023-05-27T15:24:49;21.90;99.90
21508;DHT22;10915;54.352;9.074;2023-05-27T15:27:15;21.90;99.90
21508;DHT22;10915;54.352;9.074;2023-05-27T15:29:40;22.00;99.90
21508;DHT22;10915;54.352;9.074;2023-05-27T15:32:06;22.00;99.90
21508;DHT22;10915;54.352;9.074;2023-05-27T15:34:31;21.80;99.90
21508;DHT22;10915;54.352;9.074;2023-05-27T15:36:57;21.60;99.90
21508;DHT22;10915;54.352;9.074;2023-05-27T15:39:23;21.50;99.90
21508;DHT22;10915;54.352;9.074;2023-05-27T15:41:49;20.70;99.90
21508;DHT22;10915;54.352;9.074;2023-05-27T15:44:15;20.80;99.90
21508;DHT22;10915;54.352;9.074;2023-05-27T15:46:41;20.90;99.90
21508;DHT22;10915;54.352;9.074;2023-05-27T15:49:06;21.00;99.90
21508;DHT22;10915;54.352;9.074;2023-05-27T15:51:32;21.10;99.90
21508;DHT22;10915;54.352;9.074;2023-05-27T15:53:58;21.20;99.90